Time;durP1;ratioP1;P1;durP2;ratioP2;P2;SDS_P1;SDS_P2;PMS_P1;PMS_P2;Temp;Humidity;BMP_temperature;BMP_pressure;BME280_temperature;BME280_humidity;BME280_pressure;Samples;Min_cycle;Max_cycle;Signal;HPM_P1;HPM_P2
2023/08/26 00:00:57;;;;;;;9.07;5.82;;;21.30;99.90;;;;;;5009126;28;20026;-76
2023/08/26 00:03:26;;;;;;;10.95;6.75;;;21.30;99.90;;;;;;5010173;28;20120;-77
2023/08/26 00:06:03;;;;;;;7.65;5.43;;;21.30;99.90;;;;;;5011273;28;20031;-76
2023/08/26 00:08:29;;;;;;;10.60;5.90;;;21.30;99.90;;;;;;5008546;28;20500;-78
2023/08/26 00:10:54;;;;;;;7.13;5.38;;;21.30;99.90;;;;;;5007379;28;20030;-77
2023/08/26 00:13:20;;;;;;;7.72;4.97;;;21.30;99.90;;;;;;5010844;28;21167;-77
2023/08/26 00:15:55;;;;;;;9.00;5.45;;;21.30;99.90;;;;;;5011212;28;20113;-79
2023/08/26 00:18:29;;;;;;;7.72;5.32;;;21.20;99.90;;;;;;5012539;28;20160;-79
2023/08/26 00:21:03;;;;;;;9.95;5.75;;;21.30;99.90;;;;;;5014703;28;20112;-79
2023/08/26 00:23:31;;;;;;;9.20;5.50;;;21.20;99.90;;;;;;5015749;28;20028;-78
2023/08/26 00:26:16;;;;;;;10.13;6.18;;;21.20;99.90;;;;;;5013367;28;20147;-78
2023/08/26 00:28:42;;;;;;;14.15;6.40;;;21.20;99.90;;;;;;4985794;28;20038;-76
2023/08/26 00:31:08;;;;;;;8.00;5.22;;;21.20;99.90;;;;;;5014764;28;20056;-78
2023/08/26 00:33:43;;;;;;;9.75;5.68;;;21.10;99.90;;;;;;4993457;28;20109;-78
2023/08/26 00:36:08;;;;;;;12.00;5.90;;;21.10;99.90;;;;;;5008938;28;20460;-77
2023/08/26 00:38:34;;;;;;;9.32;5.68;;;21.10;99.90;;;;;;5010433;28;20060;-77
2023/08/26 00:41:00;;;;;;;8.30;5.70;;;21.10;99.90;;;;;;5002133;28;20057;-78
2023/08/26 00:43:37;;;;;;;12.05;5.63;;;21.00;99.90;;;;;;5010772;28;20380;-77
2023/08/26 00:46:03;;;;;;;9.48;6.40;;;21.00;99.90;;;;;;5013511;28;20503;-78
2023/08/26 00:48:29;;;;;;;8.75;5.15;;;21.00;99.90;;;;;;5016404;28;20027;-76
2023/08/26 00:51:04;;;;;;;10.63;6.28;;;21.00;99.90;;;;;;5017874;28;20460;-79
2023/08/26 00:53:33;;;;;;;9.60;6.10;;;21.00;99.90;;;;;;5009633;28;20033;-75
2023/08/26 00:56:10;;;;;;;10.00;6.50;;;21.00;99.90;;;;;;5010896;28;20868;-78
2023/08/26 00:58:36;;;;;;;9.25;6.15;;;20.90;99.90;;;;;;5012234;28;20032;-78
2023/08/26 01:01:08;;;;;;;10.50;5.80;;;21.00;99.90;;;;;;5008653;28;20399;-76
2023/08/26 01:03:34;;;;;;;9.77;6.45;;;21.00;99.90;;;;;;5014632;28;20057;-77
2023/08/26 01:06:00;;;;;;;9.25;5.88;;;21.00;99.90;;;;;;5014408;28;20065;-75
2023/08/26 01:08:34;;;;;;;9.73;6.57;;;21.00;99.90;;;;;;4993378;28;20037;-77
2023/08/26 01:11:30;;;;;;;10.40;5.88;;;21.00;99.90;;;;;;5013643;28;20384;-78
2023/08/26 01:14:09;;;;;;;10.35;5.60;;;20.90;99.90;;;;;;4994290;28;20413;-76
2023/08/26 01:16:37;;;;;;;13.65;6.22;;;20.90;99.90;;;;;;4998681;28;20022;-80
2023/08/26 01:19:15;;;;;;;10.60;6.28;;;20.90;99.90;;;;;;5013699;28;20481;-73
2023/08/26 01:21:49;;;;;;;8.23;5.88;;;20.90;99.90;;;;;;5004923;28;20361;-74
2023/08/26 01:24:15;;;;;;;7.55;5.70;;;20.90;99.90;;;;;;5009296;28;20037;-74
2023/08/26 01:26:46;;;;;;;10.52;6.32;;;20.90;99.90;;;;;;5004223;28;20062;-74
2023/08/26 01:29:12;;;;;;;9.38;6.28;;;20.90;99.90;;;;;;4995641;28;20032;-74
2023/08/26 01:31:43;;;;;;;13.43;6.00;;;20.90;99.90;;;;;;5009131;28;20113;-74
2023/08/26 01:34:18;;;;;;;10.43;6.03;;;20.90;99.90;;;;;;5006910;28;20542;-74
2023/08/26 01:36:48;;;;;;;13.85;6.30;;;20.90;99.90;;;;;;5013728;28;20480;-74
2023/08/26 01:39:16;;;;;;;10.55;6.30;;;20.80;99.90;;;;;;5013286;28;20083;-74
2023/08/26 01:41:56;;;;;;;12.52;6.38;;;20.90;99.90;;;;;;5005928;28;20018;-74
2023/08/26 01:44:23;;;;;;;10.88;6.43;;;20.90;99.90;;;;;;5011538;28;20037;-73
2023/08/26 01:46:48;;;;;;;6.85;5.32;;;20.90;99.90;;;;;;5004574;28;20030;-74
2023/08/26 01:49:23;;;;;;;8.88;5.90;;;20.80;99.90;;;;;;4994137;28;20027;-73
2023/08/26 01:51:49;;;;;;;7.70;5.22;;;20.80;99.90;;;;;;4993986;28;20025;-74
2023/08/26 01:54:21;;;;;;;11.65;6.50;;;20.90;99.90;;;;;;4993443;28;20034;-74
2023/08/26 01:56:46;;;;;;;12.35;8.27;;;20.80;99.90;;;;;;5012879;28;20047;-74
2023/08/26 01:59:18;;;;;;;14.25;7.53;;;20.80;99.90;;;;;;5013570;28;20036;-74
2023/08/26 02:01:43;;;;;;;13.85;7.55;;;20.90;99.90;;;;;;5012975;28;20080;-74
2023/08/26 02:04:11;;;;;;;11.18;5.90;;;20.80;99.90;;;;;;5012982;28;20504;-74
2023/08/26 02:06:40;;;;;;;11.05;5.68;;;20.80;99.90;;;;;;5009178;28;20485;-74
2023/08/26 02:09:07;;;;;;;11.43;6.50;;;20.80;99.90;;;;;;5010222;28;20070;-74
2023/08/26 02:11:33;;;;;;;9.10;5.93;;;20.70;99.90;;;;;;5013039;28;20026;-73
2023/08/26 02:13:58;;;;;;;9.32;5.22;;;20.70;99.90;;;;;;4995437;28;20086;-73
2023/08/26 02:16:33;;;;;;;11.15;6.20;;;20.70;99.90;;;;;;5012544;28;20022;-73
2023/08/26 02:19:01;;;;;;;10.65;6.38;;;20.70;99.90;;;;;;5013092;28;20036;-73
2023/08/26 02:21:33;;;;;;;12.75;6.30;;;20.70;99.90;;;;;;5012789;28;20109;-73
2023/08/26 02:24:02;;;;;;;10.45;5.38;;;20.70;99.90;;;;;;5012836;28;20439;-74
2023/08/26 02:26:30;;;;;;;28.33;7.30;;;20.60;99.90;;;;;;5012976;28;20018;-72
2023/08/26 02:29:02;;;;;;;13.10;5.65;;;20.60;99.90;;;;;;5012760;28;20057;-72
2023/08/26 02:31:28;;;;;;;15.05;6.47;;;20.60;99.90;;;;;;4995041;28;20018;-73
2023/08/26 02:33:54;;;;;;;8.15;5.43;;;20.60;99.90;;;;;;5012497;28;20080;-73
2023/08/26 02:36:19;;;;;;;9.55;4.50;;;20.50;99.90;;;;;;4995077;28;20022;-73
2023/08/26 02:38:48;;;;;;;15.00;5.20;;;20.50;99.90;;;;;;5012210;28;20392;-73
2023/08/26 02:41:13;;;;;;;8.48;4.00;;;20.40;99.90;;;;;;5011270;28;20499;-73
2023/08/26 02:43:39;;;;;;;5.45;3.67;;;20.40;99.90;;;;;;5012539;28;20050;-73
2023/08/26 02:46:05;;;;;;;8.88;3.92;;;20.40;99.90;;;;;;5012325;28;20484;-73
2023/08/26 02:48:33;;;;;;;14.32;4.32;;;20.40;99.90;;;;;;5012321;28;20066;-73
2023/08/26 02:51:11;;;;;;;7.50;4.07;;;20.40;99.90;;;;;;5012570;28;20535;-73
2023/08/26 02:53:39;;;;;;;6.38;3.80;;;20.30;99.90;;;;;;5012302;28;20034;-73
2023/08/26 02:56:08;;;;;;;6.45;3.83;;;20.30;99.90;;;;;;4994784;28;20172;-73
2023/08/26 02:58:33;;;;;;;6.90;4.05;;;20.30;99.90;;;;;;5012432;28;20037;-73
2023/08/26 03:01:02;;;;;;;7.22;3.72;;;20.30;99.90;;;;;;5012398;28;20488;-73
2023/08/26 03:03:34;;;;;;;6.00;3.30;;;20.30;99.90;;;;;;5009046;28;20026;-73
2023/08/26 03:06:09;;;;;;;5.30;3.42;;;20.30;99.90;;;;;;4975463;28;20436;-73
2023/08/26 03:08:34;;;;;;;4.72;3.70;;;20.30;99.90;;;;;;4992891;28;20085;-73
2023/08/26 03:11:13;;;;;;;7.15;3.75;;;20.30;99.90;;;;;;4992782;28;20026;-73
2023/08/26 03:13:41;;;;;;;7.68;3.38;;;20.30;99.90;;;;;;4993082;28;20030;-73
2023/08/26 03:16:09;;;;;;;5.40;3.60;;;20.30;99.90;;;;;;4992504;28;20105;-73
2023/08/26 03:18:43;;;;;;;4.90;3.67;;;20.30;99.90;;;;;;4992729;28;20034;-73
2023/08/26 03:21:14;;;;;;;5.35;3.53;;;20.30;99.90;;;;;;4992621;28;20077;-73
2023/08/26 03:23:46;;;;;;;7.50;4.03;;;20.20;99.90;;;;;;4992417;28;20524;-73
2023/08/26 03:26:11;;;;;;;7.90;3.70;;;20.20;99.90;;;;;;4992737;28;20062;-73
2023/08/26 03:28:43;;;;;;;6.82;4.13;;;20.20;99.90;;;;;;4992388;28;20061;-73
2023/08/26 03:31:17;;;;;;;9.05;4.28;;;20.10;99.90;;;;;;5001768;28;20285;-73
2023/08/26 03:33:58;;;;;;;9.07;4.13;;;20.10;99.90;;;;;;5012058;28;20505;-73
2023/08/26 03:36:23;;;;;;;11.00;4.95;;;20.10;99.90;;;;;;4994591;28;20507;-73
2023/08/26 03:38:52;;;;;;;6.35;3.97;;;20.10;99.90;;;;;;5012121;28;20034;-73
2023/08/26 03:41:18;;;;;;;6.38;4.32;;;20.10;99.90;;;;;;5005483;28;20041;-73
2023/08/26 03:43:46;;;;;;;7.60;5.10;;;20.10;99.90;;;;;;4992208;28;20018;-73
2023/08/26 03:46:24;;;;;;;5.78;4.25;;;20.10;99.90;;;;;;5004071;28;20369;-73
2023/08/26 03:48:53;;;;;;;10.95;4.57;;;20.10;99.90;;;;;;5015385;28;20026;-73
2023/08/26 03:51:19;;;;;;;8.20;4.05;;;20.10;99.90;;;;;;5015353;28;20025;-73
2023/08/26 03:53:44;;;;;;;8.40;3.63;;;20.20;99.90;;;;;;4997592;28;20038;-73
2023/08/26 03:56:10;;;;;;;6.45;4.05;;;20.10;99.90;;;;;;5015432;28;20053;-73
2023/08/26 03:58:37;;;;;;;6.53;4.28;;;20.20;99.90;;;;;;5015237;28;20018;-73
2023/08/26 04:01:06;;;;;;;8.48;4.00;;;20.20;99.90;;;;;;5015144;28;20428;-73
2023/08/26 04:03:32;;;;;;;5.72;3.97;;;20.20;99.90;;;;;;5015244;28;20437;-73
2023/08/26 04:06:06;;;;;;;5.32;3.78;;;20.20;99.90;;;;;;5015469;28;20045;-73
2023/08/26 04:08:35;;;;;;;7.95;3.55;;;20.20;99.90;;;;;;5013973;28;20026;-73
2023/08/26 04:11:01;;;;;;;5.25;2.95;;;20.20;99.90;;;;;;5015263;28;20033;-73
2023/08/26 04:13:30;;;;;;;5.40;3.00;;;20.20;99.90;;;;;;5015219;28;20026;-73
2023/08/26 04:15:56;;;;;;;5.10;3.28;;;20.20;99.90;;;;;;4997784;28;20021;-73
2023/08/26 04:18:25;;;;;;;4.15;3.10;;;20.20;99.90;;;;;;5014892;28;20053;-73
2023/08/26 04:20:56;;;;;;;6.72;3.42;;;20.20;99.90;;;;;;5014894;28;20345;-73
2023/08/26 04:23:25;;;;;;;8.93;3.53;;;20.20;99.90;;;;;;5014736;28;20026;-73
2023/08/26 04:26:00;;;;;;;5.18;3.17;;;20.20;99.90;;;;;;5014589;28;20034;-72
2023/08/26 04:28:29;;;;;;;6.45;3.55;;;20.20;99.90;;;;;;5013048;28;20403;-72
2023/08/26 04:30:55;;;;;;;8.70;4.47;;;20.10;99.90;;;;;;5014711;28;20042;-73
2023/08/26 04:33:20;;;;;;;6.13;3.00;;;20.10;99.90;;;;;;5014473;28;20056;-73
2023/08/26 04:35:46;;;;;;;5.53;3.53;;;20.10;99.90;;;;;;5014792;28;20105;-72
2023/08/26 04:38:13;;;;;;;6.97;3.95;;;20.10;99.90;;;;;;5014510;28;20439;-72
2023/08/26 04:40:41;;;;;;;6.28;3.45;;;20.10;99.90;;;;;;5012535;28;20465;-72
2023/08/26 04:43:10;;;;;;;5.68;3.53;;;20.10;99.90;;;;;;5012945;28;20508;-72
2023/08/26 04:45:39;;;;;;;5.00;3.22;;;20.10;99.90;;;;;;5014383;28;20084;-73
2023/08/26 04:48:08;;;;;;;7.25;3.00;;;20.20;99.90;;;;;;4996463;28;20443;-72
2023/08/26 04:50:34;;;;;;;7.80;3.72;;;20.10;99.90;;;;;;5014296;28;20132;-72
2023/08/26 04:53:12;;;;;;;5.47;3.75;;;20.10;99.90;;;;;;5014039;28;20038;-72
2023/08/26 04:55:38;;;;;;;4.43;3.67;;;20.10;99.90;;;;;;5013231;28;20030;-72
2023/08/26 04:58:06;;;;;;;6.47;3.38;;;20.10;99.90;;;;;;5014214;28;20378;-72
2023/08/26 05:00:36;;;;;;;9.13;3.35;;;20.10;99.90;;;;;;4996430;28;20026;-71
2023/08/26 05:03:05;;;;;;;6.43;4.28;;;20.10;99.90;;;;;;5013745;28;20357;-71
2023/08/26 05:05:30;;;;;;;7.47;3.63;;;20.10;99.90;;;;;;4994597;28;20156;-72
2023/08/26 05:07:56;;;;;;;6.32;3.97;;;20.10;99.90;;;;;;5012048;28;20108;-71
2023/08/26 05:10:21;;;;;;;7.90;4.18;;;20.20;99.90;;;;;;4993808;28;20029;-73
2023/08/26 05:12:50;;;;;;;4.85;3.60;;;20.10;99.90;;;;;;5005083;28;20138;-72
2023/08/26 05:15:16;;;;;;;7.43;3.55;;;20.20;99.90;;;;;;5005225;28;20042;-72
2023/08/26 05:17:44;;;;;;;9.15;3.90;;;20.10;99.90;;;;;;5005009;28;20028;-72
2023/08/26 05:20:13;;;;;;;8.60;3.90;;;20.20;99.90;;;;;;5004229;28;20088;-73
2023/08/26 05:22:41;;;;;;;10.73;4.05;;;20.20;99.90;;;;;;5006726;28;20025;-72
2023/08/26 05:25:07;;;;;;;8.10;3.78;;;20.20;99.90;;;;;;5009560;28;20108;-74
2023/08/26 05:27:33;;;;;;;8.25;3.83;;;20.20;99.90;;;;;;5009876;28;20033;-72
2023/08/26 05:29:59;;;;;;;5.47;3.60;;;20.20;99.90;;;;;;4988185;28;20038;-72
2023/08/26 05:32:36;;;;;;;19.40;4.82;;;20.30;99.90;;;;;;5005141;28;20026;-72
2023/08/26 05:35:03;;;;;;;5.20;3.45;;;20.30;99.90;;;;;;5004494;28;20026;-72
2023/08/26 05:37:31;;;;;;;6.70;4.20;;;20.20;99.90;;;;;;5007331;28;20105;-72
2023/08/26 05:40:10;;;;;;;7.93;3.65;;;20.30;99.90;;;;;;5004723;28;20169;-72
2023/08/26 05:42:35;;;;;;;6.45;3.90;;;20.30;99.90;;;;;;5004807;28;20042;-72
2023/08/26 05:45:01;;;;;;;4.78;3.88;;;20.30;99.90;;;;;;5007944;28;20083;-72
2023/08/26 05:47:32;;;;;;;9.93;3.80;;;20.40;99.90;;;;;;5004357;28;20030;-72
2023/08/26 05:50:02;;;;;;;7.38;3.55;;;20.40;99.90;;;;;;5008313;28;20017;-72
2023/08/26 05:52:28;;;;;;;5.22;3.40;;;20.40;99.90;;;;;;5035692;23;20033;-72
2023/08/26 05:54:53;;;;;;;6.05;4.25;;;20.40;99.90;;;;;;4986019;28;20038;-71
2023/08/26 05:57:19;;;;;;;7.45;4.20;;;20.40;99.90;;;;;;4986648;28;20026;-72
2023/08/26 05:59:47;;;;;;;7.93;4.70;;;20.40;99.90;;;;;;4986839;28;20032;-71
2023/08/26 06:02:15;;;;;;;10.13;3.60;;;20.50;99.90;;;;;;4968071;28;20082;-72
2023/08/26 06:04:41;;;;;;;6.72;3.42;;;20.50;99.90;;;;;;4984060;28;20397;-72
2023/08/26 06:07:07;;;;;;;7.18;3.63;;;20.50;99.90;;;;;;4986276;28;20034;-72
2023/08/26 06:09:32;;;;;;;6.43;4.20;;;20.50;99.90;;;;;;4990098;28;20049;-72
2023/08/26 06:11:58;;;;;;;5.97;3.65;;;20.60;99.90;;;;;;4987153;28;20029;-72
2023/08/26 06:14:32;;;;;;;11.70;4.35;;;20.60;99.90;;;;;;4968052;28;20388;-72
2023/08/26 06:17:04;;;;;;;9.40;3.90;;;20.60;99.90;;;;;;4987637;28;20120;-72
2023/08/26 06:19:33;;;;;;;6.80;3.55;;;20.60;99.90;;;;;;4984448;28;20505;-72
2023/08/26 06:21:58;;;;;;;9.05;3.72;;;20.70;99.90;;;;;;4986759;28;20029;-74
2023/08/26 06:24:26;;;;;;;9.18;3.90;;;20.80;99.90;;;;;;4995583;28;20105;-76
2023/08/26 06:26:58;;;;;;;5.70;3.70;;;20.80;99.90;;;;;;4991748;28;20040;-74
2023/08/26 06:29:27;;;;;;;5.32;3.35;;;20.90;99.90;;;;;;4991029;28;20581;-75
2023/08/26 06:31:55;;;;;;;6.82;3.55;;;20.90;99.90;;;;;;4990102;28;20026;-74
2023/08/26 06:34:24;;;;;;;6.80;3.60;;;20.90;99.90;;;;;;4991720;28;20393;-73
2023/08/26 06:36:55;;;;;;;8.90;3.97;;;20.90;99.90;;;;;;5004709;28;20109;-73
2023/08/26 06:39:21;;;;;;;6.47;3.88;;;21.00;99.90;;;;;;4992296;28;20022;-75
2023/08/26 06:41:46;;;;;;;7.75;3.78;;;21.10;99.90;;;;;;4992326;28;20482;-73
2023/08/26 06:44:12;;;;;;;7.40;3.97;;;21.10;99.90;;;;;;4979048;28;20030;-73
2023/08/26 06:46:44;;;;;;;7.82;3.83;;;21.10;99.90;;;;;;4990565;28;20022;-74
2023/08/26 06:49:10;;;;;;;8.00;4.00;;;21.20;99.90;;;;;;4991555;28;20037;-74
2023/08/26 06:51:35;;;;;;;8.10;3.90;;;21.20;99.90;;;;;;4987030;28;20109;-74
2023/08/26 06:54:01;;;;;;;7.55;4.03;;;21.20;99.90;;;;;;4991978;28;20096;-72
2023/08/26 06:56:27;;;;;;;6.38;3.58;;;21.20;99.90;;;;;;4988854;28;20050;-73
2023/08/26 06:58:52;;;;;;;7.85;4.10;;;21.20;99.90;;;;;;4991905;28;20034;-73
2023/08/26 07:01:18;;;;;;;7.03;4.00;;;21.30;99.90;;;;;;4981101;28;20035;-75
2023/08/26 07:03:43;;;;;;;6.68;3.58;;;21.40;99.90;;;;;;4972592;28;20031;-75
2023/08/26 07:06:09;;;;;;;8.63;4.00;;;21.40;99.90;;;;;;4990002;28;20436;-74
2023/08/26 07:08:35;;;;;;;6.18;3.55;;;21.50;99.90;;;;;;4991284;28;20037;-74
2023/08/26 07:11:00;;;;;;;6.63;4.32;;;21.50;99.90;;;;;;4979885;28;20117;-74
2023/08/26 07:13:32;;;;;;;5.25;3.30;;;21.50;99.90;;;;;;4992044;28;20030;-75
2023/08/26 07:15:57;;;;;;;5.72;3.58;;;21.50;99.90;;;;;;4992160;28;20021;-74
2023/08/26 07:18:26;;;;;;;5.72;3.58;;;21.50;99.90;;;;;;4992052;28;20027;-74
2023/08/26 07:20:51;;;;;;;7.90;3.83;;;21.50;99.90;;;;;;4995494;28;20516;-74
2023/08/26 07:23:17;;;;;;;8.05;3.65;;;21.50;99.90;;;;;;4995750;28;20026;-74
2023/08/26 07:25:43;;;;;;;7.85;3.38;;;21.50;99.90;;;;;;4995795;28;20077;-74
2023/08/26 07:28:09;;;;;;;6.18;3.72;;;21.50;99.90;;;;;;4995683;28;20105;-75
2023/08/26 07:30:34;;;;;;;6.97;3.83;;;21.50;99.90;;;;;;4993612;28;20101;-76
2023/08/26 07:33:01;;;;;;;8.00;3.83;;;21.50;99.90;;;;;;4995437;28;20025;-75
2023/08/26 07:35:26;;;;;;;9.27;4.05;;;21.50;99.90;;;;;;4995433;28;20109;-73
2023/08/26 07:37:53;;;;;;;6.70;3.60;;;21.50;99.90;;;;;;4995724;28;20101;-75
2023/08/26 07:40:21;;;;;;;6.57;3.30;;;21.60;99.90;;;;;;4978136;28;20026;-72
2023/08/26 07:42:47;;;;;;;9.52;3.28;;;21.60;99.90;;;;;;4995443;28;20062;-76
2023/08/26 07:45:13;;;;;;;6.38;3.53;;;21.60;99.90;;;;;;4994092;28;20061;-73
2023/08/26 07:47:40;;;;;;;8.43;3.50;;;21.70;99.90;;;;;;4995652;28;20100;-74
2023/08/26 07:50:06;;;;;;;6.47;3.67;;;21.80;99.90;;;;;;4995047;28;20050;-75
2023/08/26 07:52:32;;;;;;;7.50;4.05;;;21.80;99.90;;;;;;4995373;28;20476;-75
2023/08/26 07:55:00;;;;;;;7.90;3.20;;;21.80;99.90;;;;;;4994384;28;20032;-75
2023/08/26 07:57:29;;;;;;;5.95;3.08;;;21.90;99.90;;;;;;4995593;28;20461;-75
2023/08/26 07:59:54;;;;;;;6.10;2.80;;;21.90;99.90;;;;;;4995466;28;20053;-75
2023/08/26 08:02:23;;;;;;;5.55;2.90;;;21.90;99.90;;;;;;4995469;28;20041;-74
2023/08/26 08:04:48;;;;;;;6.40;3.60;;;22.00;99.90;;;;;;4978014;28;20030;-74
2023/08/26 08:07:14;;;;;;;9.57;2.92;;;22.00;99.90;;;;;;4977450;28;20084;-74
2023/08/26 08:09:40;;;;;;;7.65;2.53;;;22.00;99.90;;;;;;4995112;28;20022;-74
2023/08/26 08:12:06;;;;;;;5.70;2.78;;;22.00;99.90;;;;;;4995484;28;20034;-75
2023/08/26 08:14:31;;;;;;;6.45;2.85;;;22.00;99.90;;;;;;4995071;28;20018;-74
2023/08/26 08:16:57;;;;;;;6.60;2.78;;;22.10;99.90;;;;;;4994796;28;20026;-74
2023/08/26 08:19:24;;;;;;;6.80;3.38;;;22.10;99.90;;;;;;4978999;28;20018;-75
2023/08/26 08:21:56;;;;;;;8.10;3.33;;;22.20;99.90;;;;;;5015150;28;20025;-73
2023/08/26 08:24:24;;;;;;;7.38;2.78;;;22.30;99.90;;;;;;5012238;28;20093;-74
2023/08/26 08:26:50;;;;;;;7.43;3.28;;;22.30;99.90;;;;;;4995020;28;20041;-73
2023/08/26 08:29:15;;;;;;;5.22;2.63;;;22.30;99.90;;;;;;4994724;28;20034;-75
2023/08/26 08:31:47;;;;;;;9.32;2.72;;;22.40;99.90;;;;;;4994684;28;20073;-74
2023/08/26 08:34:13;;;;;;;5.70;2.70;;;22.40;99.90;;;;;;4988883;28;20410;-74
2023/08/26 08:36:39;;;;;;;5.78;3.22;;;22.50;99.90;;;;;;4957886;28;20460;-75
2023/08/26 08:39:04;;;;;;;4.15;2.88;;;22.50;99.90;;;;;;4983450;28;20046;-73
2023/08/26 08:41:34;;;;;;;5.63;2.90;;;22.50;99.90;;;;;;4994638;28;20680;-75
2023/08/26 08:44:08;;;;;;;9.45;2.78;;;22.60;99.90;;;;;;4994755;28;20393;-75
2023/08/26 08:46:33;;;;;;;;;;;22.60;99.90;;;;;;4994877;28;20030;-74
2023/08/26 08:49:03;;;;;;;6.88;2.38;;;22.60;99.90;;;;;;4993193;28;19909;-74
2023/08/26 08:51:30;;;;;;;7.55;2.90;;;22.60;99.90;;;;;;4978679;28;20508;-74
2023/08/26 08:54:00;;;;;;;6.47;2.63;;;22.60;99.90;;;;;;4994310;28;20073;-74
2023/08/26 08:56:27;;;;;;;8.27;3.28;;;22.60;99.90;;;;;;4993902;28;20026;-74
2023/08/26 08:58:55;;;;;;;7.63;2.90;;;22.60;99.90;;;;;;4994480;28;20034;-75
2023/08/26 09:01:24;;;;;;;4.65;2.47;;;22.60;99.90;;;;;;4999665;28;20030;-76
2023/08/26 09:03:52;;;;;;;7.07;2.70;;;22.60;99.90;;;;;;4993716;28;20124;-75
2023/08/26 09:06:19;;;;;;;7.25;3.35;;;22.60;99.90;;;;;;4994937;28;20034;-76
2023/08/26 09:08:45;;;;;;;5.82;2.70;;;22.70;99.90;;;;;;4994637;28;20077;-76
2023/08/26 09:11:14;;;;;;;5.63;2.85;;;22.70;99.90;;;;;;4977124;28;20561;-75
2023/08/26 09:13:39;;;;;;;4.72;2.53;;;22.70;99.90;;;;;;4994317;28;20022;-77
2023/08/26 09:16:05;;;;;;;6.80;3.03;;;22.70;99.90;;;;;;4994399;28;20037;-77
2023/08/26 09:18:37;;;;;;;7.65;2.60;;;22.70;99.90;;;;;;4994563;28;20030;-76
2023/08/26 09:21:08;;;;;;;7.45;2.63;;;22.80;99.90;;;;;;4994329;28;20084;-77
2023/08/26 09:23:43;;;;;;;4.25;2.83;;;22.80;99.90;;;;;;4994254;28;20018;-76
2023/08/26 09:26:09;;;;;;;8.60;2.40;;;22.90;99.90;;;;;;4976827;28;20432;-76
2023/08/26 09:28:36;;;;;;;7.50;2.33;;;22.90;99.90;;;;;;4982155;28;20062;-76
2023/08/26 09:31:04;;;;;;;4.00;2.45;;;23.00;99.90;;;;;;4981395;28;20499;-76
2023/08/26 09:33:29;;;;;;;12.88;4.03;;;23.10;99.90;;;;;;4993036;28;20485;-77
2023/08/26 09:36:01;;;;;;;6.25;2.65;;;23.20;99.90;;;;;;4994491;28;20033;-75
2023/08/26 09:38:52;;;;;;;5.28;2.25;;;23.20;99.90;;;;;;4976525;28;20027;-76
2023/08/26 09:41:22;;;;;;;7.22;3.58;;;23.30;99.90;;;;;;4993910;28;20034;-75
2023/08/26 09:43:51;;;;;;;9.80;2.97;;;23.30;99.90;;;;;;4993723;28;20397;-75
2023/08/26 09:46:21;;;;;;;6.40;2.42;;;23.40;99.90;;;;;;4992272;28;20027;-75
2023/08/26 09:48:49;;;;;;;4.25;2.25;;;23.40;99.90;;;;;;4974208;28;20571;-76
2023/08/26 09:51:27;;;;;;;4.07;2.38;;;23.50;99.90;;;;;;4973898;28;20030;-76
2023/08/26 09:53:59;;;;;;;6.45;2.85;;;23.60;99.90;;;;;;4991979;28;20389;-76
2023/08/26 09:56:28;;;;;;;8.20;2.53;;;23.60;99.90;;;;;;4993464;28;20022;-77
2023/08/26 09:58:55;;;;;;;7.18;2.58;;;23.60;99.90;;;;;;4993557;28;20041;-74
2023/08/26 10:01:22;;;;;;;7.15;2.75;;;23.60;99.90;;;;;;4993650;28;20029;-76
2023/08/26 10:03:59;;;;;;;7.47;2.85;;;23.70;99.90;;;;;;4993448;28;20026;-74
2023/08/26 10:06:29;;;;;;;7.55;2.30;;;23.70;99.90;;;;;;4993646;28;20106;-76
2023/08/26 10:09:03;;;;;;;5.85;2.67;;;23.70;99.90;;;;;;4983719;28;20030;-76
2023/08/26 10:11:29;;;;;;;7.70;3.15;;;23.70;99.90;;;;;;4993292;28;20014;-75
2023/08/26 10:13:59;;;;;;;9.00;2.90;;;23.70;99.90;;;;;;4993233;28;20030;-75
2023/08/26 10:16:25;;;;;;;8.15;2.97;;;23.70;99.90;;;;;;4992951;28;20035;-74
2023/08/26 10:18:57;;;;;;;8.63;2.88;;;23.70;99.90;;;;;;4993331;28;20030;-75
2023/08/26 10:21:24;;;;;;;6.75;2.40;;;23.70;99.90;;;;;;4992555;28;20081;-75
2023/08/26 10:23:49;;;;;;;6.95;2.50;;;23.60;99.90;;;;;;4992428;28;20019;-72
2023/08/26 10:26:19;;;;;;;7.35;2.60;;;23.50;99.90;;;;;;4990184;28;20231;-74
2023/08/26 10:28:47;;;;;;;7.18;3.20;;;23.50;99.90;;;;;;4990329;28;20122;-72
2023/08/26 10:31:14;;;;;;;5.45;2.67;;;23.40;99.90;;;;;;4991229;28;20038;-73
2023/08/26 10:34:07;;;;;;;7.53;2.72;;;23.40;99.90;;;;;;4988117;28;20413;-74
2023/08/26 10:36:37;;;;;;;4.70;2.67;;;23.40;99.90;;;;;;4990253;28;20022;-76
2023/08/26 10:39:04;;;;;;;8.02;2.95;;;23.50;99.90;;;;;;4976428;28;20030;-74
2023/08/26 10:41:30;;;;;;;6.00;3.03;;;23.60;99.90;;;;;;4992315;28;20030;-74
2023/08/26 10:44:01;;;;;;;5.35;2.72;;;23.60;99.90;;;;;;4988009;28;20030;-74
2023/08/26 10:46:54;;;;;;;5.50;2.80;;;23.70;99.90;;;;;;4978119;28;20385;-74
2023/08/26 10:49:27;;;;;;;6.18;2.70;;;23.80;99.90;;;;;;4990596;28;20114;-74
2023/08/26 10:52:08;;;;;;;7.13;2.85;;;23.80;99.90;;;;;;4970379;28;20441;-74
2023/08/26 10:54:35;;;;;;;5.75;2.85;;;23.80;99.90;;;;;;4983760;28;20373;-73
2023/08/26 10:57:07;;;;;;;8.88;2.70;;;23.80;99.90;;;;;;4986965;28;20428;-74
2023/08/26 10:59:37;;;;;;;6.53;3.17;;;23.90;99.90;;;;;;4987610;28;20492;-74
2023/08/26 11:02:06;;;;;;;4.45;2.38;;;23.90;99.90;;;;;;4989673;28;20382;-74
2023/08/26 11:04:32;;;;;;;5.47;2.47;;;24.00;99.90;;;;;;4983144;28;20015;-74
2023/08/26 11:06:57;;;;;;;9.90;3.05;;;24.00;99.90;;;;;;4984660;28;20604;-74
2023/08/26 11:09:29;;;;;;;4.80;2.65;;;24.10;99.90;;;;;;4991819;28;20029;-74
2023/08/26 11:11:58;;;;;;;5.78;2.67;;;24.10;99.90;;;;;;4984802;28;20019;-73
2023/08/26 11:14:31;;;;;;;5.60;2.70;;;24.10;99.90;;;;;;4988621;28;20469;-74
2023/08/26 11:17:02;;;;;;;6.05;2.80;;;24.00;99.90;;;;;;4984314;28;20026;-73
2023/08/26 11:19:31;;;;;;;8.90;2.92;;;24.00;99.90;;;;;;4990097;28;20027;-74
2023/08/26 11:22:03;;;;;;;7.68;2.88;;;24.00;99.90;;;;;;4987711;28;20018;-73
2023/08/26 11:24:30;;;;;;;5.47;2.92;;;24.00;99.90;;;;;;4990079;28;20393;-75
2023/08/26 11:26:55;;;;;;;5.53;2.70;;;24.00;99.90;;;;;;4990077;28;20021;-74
2023/08/26 11:29:21;;;;;;;12.18;3.10;;;24.10;99.90;;;;;;4990220;28;20022;-74
2023/08/26 11:31:47;;;;;;;7.50;3.15;;;24.10;99.90;;;;;;4990373;28;20278;-74
2023/08/26 11:34:13;;;;;;;9.23;3.03;;;24.20;99.90;;;;;;4987307;28;20030;-73
2023/08/26 11:36:39;;;;;;;9.43;3.00;;;24.20;99.90;;;;;;4993068;28;20030;-74
2023/08/26 11:39:07;;;;;;;9.60;3.05;;;24.20;99.90;;;;;;4995871;28;20057;-73
2023/08/26 11:41:32;;;;;;;11.38;3.20;;;24.20;99.90;;;;;;4973876;28;20095;-74
2023/08/26 11:43:58;;;;;;;9.40;3.20;;;24.20;99.90;;;;;;4974675;28;20481;-77
2023/08/26 11:46:23;;;;;;;4.22;3.08;;;24.10;99.90;;;;;;4992842;28;20073;-76
2023/08/26 11:48:49;;;;;;;6.55;2.55;;;24.10;99.90;;;;;;4987893;28;20033;-77
2023/08/26 11:51:16;;;;;;;6.93;3.08;;;24.10;99.90;;;;;;4990314;28;20035;-77
2023/08/26 11:53:41;;;;;;;4.22;2.72;;;23.90;99.90;;;;;;5022202;23;20038;-77
2023/08/26 11:56:07;;;;;;;6.03;3.03;;;23.80;99.90;;;;;;4995718;28;20031;-77
2023/08/26 11:58:36;;;;;;;6.63;2.80;;;23.80;99.90;;;;;;5013032;28;20022;-77
2023/08/26 12:01:05;;;;;;;6.38;2.95;;;23.70;99.90;;;;;;5012875;28;20052;-76
2023/08/26 12:03:31;;;;;;;6.97;3.05;;;23.60;99.90;;;;;;5012528;28;20048;-77
2023/08/26 12:05:56;;;;;;;7.40;3.22;;;23.60;99.90;;;;;;5015521;28;20480;-76
2023/08/26 12:08:22;;;;;;;8.40;3.45;;;23.50;99.90;;;;;;5016105;28;20052;-76
2023/08/26 12:10:49;;;;;;;8.35;3.63;;;23.40;99.90;;;;;;5015780;28;20026;-76
2023/08/26 12:13:16;;;;;;;5.53;3.72;;;23.30;99.90;;;;;;5016207;28;20022;-75
2023/08/26 12:15:42;;;;;;;8.18;3.20;;;23.20;99.90;;;;;;5017214;28;20062;-76
2023/08/26 12:18:12;;;;;;;5.55;3.88;;;23.10;99.90;;;;;;5016772;28;20026;-76
2023/08/26 12:20:38;;;;;;;8.40;3.95;;;23.00;99.90;;;;;;5015281;28;20052;-76
2023/08/26 12:23:07;;;;;;;7.10;3.40;;;22.90;99.90;;;;;;5016184;28;20029;-76
2023/08/26 12:25:41;;;;;;;9.05;4.57;;;22.80;99.90;;;;;;4999235;28;20034;-75
2023/08/26 12:28:18;;;;;;;8.07;3.13;;;22.70;99.90;;;;;;4998256;28;20022;-76
2023/08/26 12:30:47;;;;;;;6.20;3.53;;;22.70;99.90;;;;;;4999154;28;20029;-77
2023/08/26 12:33:17;;;;;;;6.25;4.05;;;22.70;99.90;;;;;;5003929;28;20110;-76
2023/08/26 12:35:44;;;;;;;8.32;3.72;;;22.60;99.90;;;;;;4994882;28;20125;-76
2023/08/26 12:38:19;;;;;;;8.38;3.72;;;22.60;99.90;;;;;;5014019;28;20592;-76
2023/08/26 12:40:50;;;;;;;6.38;3.90;;;22.50;99.90;;;;;;4997898;28;20033;-77
2023/08/26 12:43:16;;;;;;;10.40;4.20;;;22.40;99.90;;;;;;4998727;28;20030;-75
2023/08/26 12:45:43;;;;;;;6.97;3.55;;;22.40;99.90;;;;;;4995372;28;20036;-75
2023/08/26 12:48:08;;;;;;;6.45;3.33;;;22.30;99.90;;;;;;5005342;28;20112;-74
2023/08/26 12:50:34;;;;;;;10.48;3.45;;;22.20;99.90;;;;;;5015306;28;20021;-74
2023/08/26 12:53:00;;;;;;;10.10;4.13;;;22.10;99.90;;;;;;4994627;28;20060;-74